Time;durP1;ratioP1;P1;durP2;ratioP2;P2;SDS_P1;SDS_P2;PMS_P1;PMS_P2;Temp;Humidity;BMP_temperature;BMP_pressure;BME280_temperature;BME280_humidity;BME280_pressure;Samples;Min_cycle;Max_cycle;Signal;HPM_P1;HPM_P2
2022/04/29 00:01:19;;;;;;;20.23;14.02;;;;;;;13.98;83.81;99904.91;4987697;28;20038;-74
2022/04/29 00:03:45;;;;;;;22.35;14.35;;;;;;;14.11;83.01;99909.41;4991146;28;20026;-74
2022/04/29 00:06:10;;;;;;;25.63;15.85;;;;;;;13.86;83.02;99912.16;4991359;28;20040;-74
2022/04/29 00:08:36;;;;;;;20.10;14.63;;;;;;;14.04;82.38;99897.91;4973928;28;20058;-74
2022/04/29 00:11:02;;;;;;;31.08;15.60;;;;;;;14.04;82.37;99903.53;4972787;28;20505;-74
2022/04/29 00:13:28;;;;;;;25.15;15.35;;;;;;;13.97;82.64;99909.75;4972559;28;20350;-74
2022/04/29 00:15:53;;;;;;;21.25;16.17;;;;;;;13.94;82.68;99915.22;4985515;28;20042;-74
2022/04/29 00:18:19;;;;;;;21.23;15.95;;;;;;;13.92;82.52;99906.31;4971320;28;20039;-73
2022/04/29 00:20:45;;;;;;;22.05;16.17;;;;;;;13.82;82.87;99899.16;4972853;28;20105;-74
2022/04/29 00:23:11;;;;;;;29.67;16.23;;;;;;;13.84;83.67;99894.81;4972741;28;20025;-74
2022/04/29 00:25:37;;;;;;;23.83;16.60;;;;;;;13.81;82.05;99892.69;4972713;28;20030;-74
2022/04/29 00:28:03;;;;;;;26.80;16.58;;;;;;;13.91;82.32;99891.44;4972623;28;20037;-73
2022/04/29 00:30:29;;;;;;;26.23;16.00;;;;;;;13.95;81.75;99889.59;4972477;28;20510;-73
2022/04/29 00:32:55;;;;;;;26.67;16.52;;;;;;;13.88;81.60;99886.50;4987257;28;20054;-74
2022/04/29 00:35:21;;;;;;;23.90;17.58;;;;;;;13.86;82.51;99894.47;4979845;28;20034;-73
2022/04/29 00:37:56;;;;;;;28.65;17.33;;;;;;;13.50;83.28;99884.75;4988185;28;20136;-73
2022/04/29 00:40:26;;;;;;;28.42;17.88;;;;;;;13.49;83.24;99878.28;4990694;28;20085;-73
2022/04/29 00:42:52;;;;;;;26.25;16.90;;;;;;;13.36;83.58;99885.00;4987336;28;20071;-73
2022/04/29 00:45:19;;;;;;;27.95;18.13;;;;;;;13.39;84.76;99887.94;4991900;28;20030;-73
2022/04/29 00:47:46;;;;;;;23.77;18.63;;;;;;;13.34;84.61;99877.75;4973384;28;20030;-73
2022/04/29 00:50:14;;;;;;;28.27;18.77;;;;;;;13.38;84.24;99875.06;4970706;28;20057;-73
2022/04/29 00:52:47;;;;;;;25.67;18.55;;;;;;;13.43;84.57;99877.66;4975505;28;20027;-73
2022/04/29 00:55:14;;;;;;;24.77;18.00;;;;;;;13.29;84.29;99872.34;4976560;28;20485;-74
2022/04/29 00:58:17;;;;;;;24.92;17.17;;;;;;;13.27;84.05;99871.88;4976307;28;20097;-73
2022/04/29 01:00:43;;;;;;;26.10;17.52;;;;;;;13.15;84.79;99869.81;4977708;28;20046;-73
2022/04/29 01:03:13;;;;;;;30.50;17.70;;;;;;;13.36;84.15;99873.75;4980877;28;20037;-73
2022/04/29 01:05:39;;;;;;;26.23;17.85;;;;;;;13.54;83.63;99871.63;4976332;28;20031;-73
2022/04/29 01:08:06;;;;;;;27.13;17.95;;;;;;;13.41;83.79;99882.00;4976496;28;20125;-74
2022/04/29 01:10:32;;;;;;;25.95;17.27;;;;;;;13.46;83.98;99873.38;4975989;28;20031;-73
2022/04/29 01:13:04;;;;;;;27.08;17.38;;;;;;;13.53;83.41;99868.03;4980904;28;20524;-73
2022/04/29 01:15:30;;;;;;;23.00;15.75;;;;;;;13.61;83.23;99872.72;4990939;28;20061;-74
2022/04/29 01:17:59;;;;;;;25.17;16.52;;;;;;;13.47;83.36;99875.00;4994276;28;20160;-74
2022/04/29 01:20:28;;;;;;;24.25;16.73;;;;;;;13.58;82.82;99865.00;4995415;28;20026;-73
2022/04/29 01:22:55;;;;;;;28.08;18.25;;;;;;;13.53;83.21;99861.56;4995360;28;20057;-74
2022/04/29 01:25:21;;;;;;;29.63;18.88;;;;;;;13.56;83.31;99855.25;4995386;28;20037;-73
2022/04/29 01:27:46;;;;;;;29.20;18.83;;;;;;;13.68;83.15;99858.09;4988651;28;20039;-74
2022/04/29 01:30:16;;;;;;;27.52;18.88;;;;;;;13.71;82.64;99862.22;4984345;28;20164;-74
2022/04/29 01:32:41;;;;;;;29.30;18.98;;;;;;;13.51;83.42;99864.72;4989009;28;20465;-74
2022/04/29 01:35:09;;;;;;;26.88;17.85;;;;;;;13.69;82.63;99864.56;4975579;28;20058;-74
2022/04/29 01:37:35;;;;;;;32.50;19.35;;;;;;;13.58;82.52;99858.56;4986163;28;20088;-73
2022/04/29 01:40:02;;;;;;;28.10;19.50;;;;;;;13.60;82.80;99857.03;4994816;28;20126;-74
2022/04/29 01:42:29;;;;;;;30.02;18.88;;;;;;;13.62;82.70;99845.44;4995347;28;20065;-74
2022/04/29 01:44:54;;;;;;;29.90;19.75;;;;;;;13.79;82.23;99852.03;4993470;28;20489;-74
2022/04/29 01:47:20;;;;;;;31.92;21.55;;;;;;;13.65;82.43;99853.19;4993955;28;20101;-74
2022/04/29 01:49:46;;;;;;;32.53;21.92;;;;;;;13.51;82.33;99852.66;5012292;28;20100;-74
2022/04/29 01:52:11;;;;;;;35.22;24.05;;;;;;;13.43;83.25;99852.38;4982481;28;20621;-74
2022/04/29 01:54:37;;;;;;;36.10;24.02;;;;;;;13.40;83.33;99850.25;4996132;28;20092;-74
2022/04/29 01:57:05;;;;;;;45.25;23.13;;;;;;;13.25;83.92;99842.47;5013075;28;20021;-74
2022/04/29 01:59:31;;;;;;;34.63;21.80;;;;;;;13.37;83.40;99838.88;5003615;28;20030;-74
2022/04/29 02:01:57;;;;;;;30.20;21.58;;;;;;;13.44;82.97;99848.41;4994054;28;20030;-73
2022/04/29 02:04:23;;;;;;;28.83;20.15;;;;;;;13.53;82.29;99845.53;5012035;28;20033;-74
2022/04/29 02:06:49;;;;;;;25.70;18.33;;;;;;;13.51;81.97;99847.84;4996560;28;20026;-74
2022/04/29 02:09:14;;;;;;;29.02;17.88;;;;;;;13.39;81.45;99856.22;5014040;28;20136;-73
2022/04/29 02:11:40;;;;;;;27.13;18.75;;;;;;;13.53;80.72;99855.94;4991872;28;20480;-74
2022/04/29 02:14:05;;;;;;;28.33;18.73;;;;;;;13.38;80.81;99849.78;4994466;28;20128;-74
2022/04/29 02:16:31;;;;;;;24.00;17.48;;;;;;;13.40;81.46;99850.25;4993715;28;20039;-74
2022/04/29 02:18:56;;;;;;;24.80;17.70;;;;;;;13.42;80.67;99855.53;4994273;28;20062;-74
2022/04/29 02:21:22;;;;;;;29.23;18.40;;;;;;;13.60;80.69;99851.41;4994336;28;20061;-73
2022/04/29 02:23:47;;;;;;;26.15;16.80;;;;;;;13.62;79.39;99857.50;4992938;28;20084;-74
2022/04/29 02:26:13;;;;;;;26.35;17.70;;;;;;;13.71;78.97;99859.41;5007589;28;20416;-74
2022/04/29 02:28:39;;;;;;;22.10;16.08;;;;;;;13.62;78.89;99857.50;4995369;28;20058;-73
2022/04/29 02:31:04;;;;;;;24.40;15.95;;;;;;;13.54;78.66;99851.97;4995583;28;20061;-74
2022/04/29 02:33:31;;;;;;;22.75;18.55;;;;;;;13.53;79.84;99865.22;4976820;28;20030;-74
2022/04/29 02:35:56;;;;;;;25.42;17.63;;;;;;;13.31;79.27;99855.97;4993889;28;20379;-73
2022/04/29 02:38:22;;;;;;;29.33;18.30;;;;;;;13.36;80.28;99857.75;4993725;28;20057;-74
2022/04/29 02:40:50;;;;;;;24.60;18.17;;;;;;;13.20;80.26;99868.78;4976354;28;20030;-74
2022/04/29 02:43:17;;;;;;;28.33;17.48;;;;;;;13.30;80.45;99864.72;5003334;28;20108;-74
2022/04/29 02:45:43;;;;;;;27.85;18.55;;;;;;;13.17;81.02;99873.09;4985147;28;20469;-74
2022/04/29 02:48:09;;;;;;;23.52;16.92;;;;;;;13.18;80.90;99869.09;4994795;28;20029;-74
2022/04/29 02:50:35;;;;;;;26.83;16.30;;;;;;;13.09;80.64;99875.97;5006231;28;20428;-73
2022/04/29 02:53:01;;;;;;;24.92;17.25;;;;;;;13.15;80.43;99871.78;4980259;28;20030;-73
2022/04/29 02:55:27;;;;;;;22.83;16.05;;;;;;;13.23;79.22;99875.69;5000186;28;20025;-74
2022/04/29 02:57:52;;;;;;;18.48;15.30;;;;;;;13.27;79.16;99877.47;5013107;28;20022;-74
2022/04/29 03:00:18;;;;;;;25.35;17.13;;;;;;;13.25;80.32;99874.19;5003105;28;20030;-74
2022/04/29 03:02:44;;;;;;;22.52;16.40;;;;;;;13.09;79.87;99881.59;4994741;28;20038;-73
2022/04/29 03:05:09;;;;;;;29.83;16.70;;;;;;;13.09;79.41;99873.16;4989423;28;20026;-74
2022/04/29 03:07:35;;;;;;;26.50;17.45;;;;;;;13.18;79.13;99893.59;4993153;28;20049;-74
2022/04/29 03:10:00;;;;;;;25.83;17.10;;;;;;;13.09;79.86;99898.44;4975903;28;20057;-74
2022/04/29 03:12:26;;;;;;;23.08;16.80;;;;;;;13.15;78.81;99900.69;4993268;28;20034;-73
2022/04/29 03:14:51;;;;;;;23.88;17.00;;;;;;;13.00;80.32;99895.69;4992779;28;20038;-74
2022/04/29 03:20:04;;;;;;;23.52;16.17;;;;;;;12.99;78.97;99897.66;4995690;28;20049;-74
2022/04/29 03:22:29;;;;;;;24.55;16.58;;;;;;;13.16;78.86;99898.72;5005335;28;20029;-74
2022/04/29 03:24:56;;;;;;;27.27;16.55;;;;;;;13.03;78.05;99907.06;5012700;28;20064;-74
2022/04/29 03:27:21;;;;;;;24.95;16.98;;;;;;;12.95;78.87;99907.94;5000465;28;20042;-74
2022/04/29 03:29:47;;;;;;;23.08;16.15;;;;;;;13.04;78.58;99914.34;4996644;28;20089;-74
2022/04/29 03:32:13;;;;;;;23.63;16.83;;;;;;;12.93;79.09;99913.09;4999846;28;20037;-74
2022/04/29 03:34:39;;;;;;;28.00;16.92;;;;;;;12.90;78.80;99911.78;5003418;28;20034;-74
2022/04/29 03:37:05;;;;;;;25.90;15.57;;;;;;;12.81;78.58;99907.38;5000256;28;20221;-74
2022/04/29 03:39:30;;;;;;;22.30;15.52;;;;;;;12.80;78.77;99914.16;4995870;28;20031;-73
2022/04/29 03:41:56;;;;;;;23.50;16.30;;;;;;;12.67;78.20;99913.22;4992805;28;20473;-73
2022/04/29 03:44:21;;;;;;;24.55;16.20;;;;;;;12.63;79.28;99905.50;4996984;28;20033;-73
2022/04/29 03:46:47;;;;;;;24.95;17.45;;;;;;;12.66;79.02;99911.59;4977833;28;20022;-73
2022/04/29 03:51:57;;;;;;;23.70;17.08;;;;;;;12.57;79.63;99906.03;4992990;28;20097;-73
2022/04/29 03:54:22;;;;;;;25.52;16.75;;;;;;;12.64;79.17;99909.09;4974809;28;20479;-77
2022/04/29 03:56:48;;;;;;;23.13;17.45;;;;;;;12.55;79.04;99914.78;4992998;28;20034;-75
2022/04/29 03:59:13;;;;;;;27.88;17.95;;;;;;;12.52;79.46;99915.44;4988566;28;20033;-76
2022/04/29 04:01:39;;;;;;;26.55;17.48;;;;;;;12.37;79.76;99914.03;4993291;28;20421;-74
2022/04/29 04:04:04;;;;;;;25.55;17.40;;;;;;;12.41;80.52;99920.59;5010581;28;20109;-74
2022/04/29 04:09:14;;;;;;;23.73;18.05;;;;;;;12.40;80.17;99916.16;5008879;28;20041;-76
2022/04/29 04:11:41;;;;;;;26.20;18.67;;;;;;;12.42;80.40;99922.25;5007489;28;20026;-74
2022/04/29 04:14:07;;;;;;;30.20;18.70;;;;;;;12.44;79.80;99914.34;4991718;28;20087;-74
2022/04/29 04:16:32;;;;;;;27.60;18.05;;;;;;;12.41;79.33;99917.78;4978097;28;20401;-74
2022/04/29 04:18:58;;;;;;;27.88;17.42;;;;;;;12.49;78.86;99916.94;4991624;28;20062;-75
2022/04/29 04:21:23;;;;;;;25.27;17.13;;;;;;;12.46;78.53;99917.63;4993441;28;20030;-74
2022/04/29 04:23:49;;;;;;;29.13;18.90;;;;;;;12.57;77.88;99922.88;4987901;28;20065;-76
2022/04/29 04:26:14;;;;;;;26.40;18.10;;;;;;;12.68;76.96;99929.75;5011172;28;20038;-76
2022/04/29 04:28:40;;;;;;;28.58;18.63;;;;;;;12.67;77.43;99932.88;5011386;28;20109;-75
2022/04/29 04:31:05;;;;;;;28.30;18.63;;;;;;;12.76;75.64;99925.25;5009182;28;20030;-75
2022/04/29 04:33:31;;;;;;;26.58;18.38;;;;;;;12.77;75.78;99930.50;5011247;28;20050;-75
2022/04/29 04:35:56;;;;;;;26.33;17.48;;;;;;;12.89;75.12;99928.94;4990925;28;20030;-75
2022/04/29 04:38:22;;;;;;;26.15;18.45;;;;;;;12.87;75.21;99925.66;4990825;28;20046;-75
2022/04/29 04:40:48;;;;;;;37.60;19.05;;;;;;;13.02;75.64;99930.66;5008276;28;20037;-75
2022/04/29 04:43:14;;;;;;;23.17;16.45;;;;;;;13.05;74.50;99927.22;4993696;28;20022;-76
2022/04/29 04:45:39;;;;;;;25.75;18.23;;;;;;;13.05;75.45;99929.19;5009708;28;20033;-76
2022/04/29 04:48:06;;;;;;;24.52;18.27;;;;;;;13.06;75.92;99940.09;4993699;28;20029;-74
2022/04/29 04:50:31;;;;;;;27.30;18.42;;;;;;;13.08;76.05;99936.91;4993802;28;20486;-75
2022/04/29 04:52:57;;;;;;;23.88;17.35;;;;;;;13.10;74.57;99934.63;5010396;28;20026;-75
2022/04/29 04:55:22;;;;;;;23.48;17.00;;;;;;;13.10;73.57;99939.41;5007144;28;20480;-75
2022/04/29 04:57:48;;;;;;;22.95;16.65;;;;;;;13.18;74.13;99936.50;5002819;28;20022;-74
2022/04/29 05:00:14;;;;;;;26.13;17.23;;;;;;;13.23;74.36;99938.31;5005009;28;20477;-75
2022/04/29 05:02:40;;;;;;;25.75;16.98;;;;;;;13.30;73.96;99944.22;5004168;28;21310;-73
2022/04/29 05:05:10;;;;;;;25.23;17.45;;;;;;;13.45;73.34;99948.44;5010894;28;20022;-74
2022/04/29 05:07:38;;;;;;;23.60;17.23;;;;;;;13.39;72.19;99940.50;5011300;28;20407;-75
2022/04/29 05:10:08;;;;;;;21.15;16.15;;;;;;;13.43;72.99;99950.72;4993657;28;20026;-76
2022/04/29 05:12:44;;;;;;;27.13;16.42;;;;;;;13.56;70.92;99940.41;4998985;28;20032;-74
2022/04/29 05:15:11;;;;;;;22.10;16.42;;;;;;;13.52;72.06;99947.03;4994755;28;20113;-74
2022/04/29 05:17:39;;;;;;;24.42;18.13;;;;;;;13.45;71.88;99953.22;4997097;28;20026;-73
2022/04/29 05:20:06;;;;;;;21.60;16.00;;;;;;;13.38;69.93;99950.91;4989287;28;20030;-73
2022/04/29 05:22:31;;;;;;;22.25;16.85;;;;;;;13.53;69.81;99957.94;5011269;28;20540;-75
2022/04/29 05:24:57;;;;;;;23.65;15.80;;;;;;;13.45;69.26;99956.03;4996252;28;20149;-73
2022/04/29 05:27:23;;;;;;;26.92;17.48;;;;;;;13.35;71.70;99948.81;4992586;28;20105;-74
2022/04/29 05:29:49;;;;;;;23.45;17.77;;;;;;;13.26;72.09;99951.66;5007886;28;20029;-75
2022/04/29 05:32:16;;;;;;;22.50;16.73;;;;;;;13.26;72.17;99957.28;4984220;28;20613;-75
2022/04/29 05:34:42;;;;;;;24.63;17.85;;;;;;;13.23;71.82;99948.72;4994223;28;20038;-75
2022/04/29 05:37:08;;;;;;;30.40;18.25;;;;;;;13.26;72.56;99950.84;4994973;28;20545;-78
2022/04/29 05:42:22;;;;;;;23.77;16.65;;;;;;;13.18;72.08;99950.56;4995041;28;20034;-77
2022/04/29 05:44:48;;;;;;;27.33;18.63;;;;;;;13.31;73.12;99951.47;5003873;28;20109;-76
2022/04/29 05:47:14;;;;;;;29.63;19.77;;;;;;;13.41;72.22;99950.22;5001622;28;20453;-77
2022/04/29 05:49:40;;;;;;;31.35;18.50;;;;;;;13.45;71.40;99953.22;5004935;28;20050;-76
2022/04/29 05:52:06;;;;;;;28.52;20.15;;;;;;;13.44;71.67;99954.38;4980566;28;20057;-73
2022/04/29 05:54:33;;;;;;;26.10;17.25;;;;;;;13.46;70.72;99957.66;4994416;28;20484;-72
2022/04/29 05:56:59;;;;;;;25.77;18.00;;;;;;;13.53;70.71;99960.75;5002827;28;20109;-75
2022/04/29 05:59:24;;;;;;;26.70;18.05;;;;;;;13.66;71.59;99960.81;4996712;28;20034;-74
2022/04/29 06:01:50;;;;;;;25.80;17.40;;;;;;;13.72;69.71;99959.44;4996375;28;20026;-77
2022/04/29 06:04:16;;;;;;;31.13;19.38;;;;;;;13.58;68.73;99956.94;5001079;28;20029;-82
2022/04/29 06:06:42;;;;;;;29.95;18.92;;;;;;;13.76;70.19;99969.66;5008075;28;20487;-76
2022/04/29 06:09:08;;;;;;;28.35;17.55;;;;;;;13.90;69.56;99974.16;4996390;28;20022;-75
2022/04/29 06:11:33;;;;;;;23.63;16.83;;;;;;;13.84;69.62;99967.09;4995500;28;20122;-75
2022/04/29 06:13:59;;;;;;;26.45;16.98;;;;;;;13.90;69.99;99960.09;4985458;28;20474;-77
2022/04/29 06:16:25;;;;;;;23.75;16.23;;;;;;;13.83;67.57;99966.28;5020645;28;20025;-74
2022/04/29 06:18:51;;;;;;;26.73;17.02;;;;;;;13.75;68.75;99953.09;5008693;28;20048;-76
2022/04/29 06:21:18;;;;;;;24.15;16.83;;;;;;;13.87;68.10;99967.22;4999041;28;20034;-80
2022/04/29 06:23:46;;;;;;;24.88;16.35;;;;;;;14.01;68.07;99971.75;4995266;28;20044;-81
2022/04/29 06:26:12;;;;;;;29.05;16.83;;;;;;;14.04;68.03;99971.03;4983554;28;21538;-78
2022/04/29 06:28:38;;;;;;;27.17;17.50;;;;;;;14.18;66.93;99970.75;4986519;28;20041;-77
2022/04/29 06:31:05;;;;;;;26.77;16.30;;;;;;;14.09;66.21;99961.56;4994737;28;20022;-78
2022/04/29 06:33:33;;;;;;;23.23;16.33;;;;;;;14.00;66.33;99970.09;4995517;28;20453;-78
2022/04/29 06:35:58;;;;;;;23.38;15.63;;;;;;;14.16;67.28;99970.25;5008621;28;20096;-77
2022/04/29 06:38:24;;;;;;;22.58;15.27;;;;;;;14.09;66.24;99968.00;5013057;28;20057;-75
2022/04/29 06:40:50;;;;;;;24.77;17.00;;;;;;;14.02;66.86;99956.50;4994113;28;20042;-78
2022/04/29 06:43:16;;;;;;;26.25;17.52;;;;;;;14.22;66.55;99959.59;4999717;28;20092;-78
2022/04/29 06:45:42;;;;;;;22.80;16.33;;;;;;;14.09;66.72;99967.19;5010056;28;20484;-80
2022/04/29 06:48:08;;;;;;;25.30;18.02;;;;;;;14.11;67.44;99962.84;4993422;28;20032;-74
2022/04/29 06:50:34;;;;;;;20.98;16.17;;;;;;;14.13;67.35;99963.34;4990651;28;20108;-78
2022/04/29 06:53:00;;;;;;;25.25;16.60;;;;;;;14.14;65.94;99965.00;5003880;28;20034;-84
2022/04/29 06:55:26;;;;;;;22.48;16.02;;;;;;;14.20;66.38;99956.31;4999472;28;20481;-79
2022/04/29 06:57:53;;;;;;;23.33;16.92;;;;;;;14.36;66.20;99965.75;4979532;28;20041;-86
2022/04/29 07:00:19;;;;;;;24.60;16.00;;;;;;;14.32;66.36;99964.78;5001448;28;20043;-84
2022/04/29 07:02:45;;;;;;;27.30;14.18;;;;;;;14.42;64.60;99964.34;5001584;28;20022;-77
2022/04/29 07:05:11;;;;;;;28.10;15.75;;;;;;;14.43;64.65;99968.00;4997255;28;20108;-85
2022/04/29 07:07:38;;;;;;;22.85;15.02;;;;;;;14.47;64.14;99963.28;4982418;28;20394;-84
2022/04/29 07:10:05;;;;;;;23.50;16.35;;;;;;;14.51;64.65;99966.22;4987909;28;20065;-84
2022/04/29 07:12:39;;;;;;;18.35;13.60;;;;;;;14.42;63.80;99969.97;4981705;28;20100;-75
2022/04/29 07:15:13;;;;;;;19.48;14.02;;;;;;;14.57;63.84;99964.81;4995980;28;20026;-78
2022/04/29 07:17:39;;;;;;;22.33;16.38;;;;;;;14.57;64.30;99953.56;4991549;28;20066;-76
2022/04/29 07:20:06;;;;;;;25.10;15.32;;;;;;;14.56;64.04;99961.19;4997065;28;20048;-83
2022/04/29 07:22:32;;;;;;;20.48;14.35;;;;;;;14.52;63.21;99957.41;4993462;28;20058;-84
2022/04/29 07:24:58;;;;;;;22.58;15.02;;;;;;;14.82;64.93;99959.22;4994117;28;20038;-81
2022/04/29 07:27:27;;;;;;;29.13;15.50;;;;;;;14.81;63.87;99957.59;4987951;28;20137;-84
2022/04/29 07:30:16;;;;;;;27.23;20.15;;;;;;;14.70;62.77;99957.22;4959407;28;20067;-85
2022/04/29 07:32:45;;;;;;;31.45;20.85;;;;;;;14.91;64.03;99957.13;5004062;28;20494;-84
2022/04/29 07:43:26;;;;;;;22.48;16.42;;;;;;;14.74;61.14;99953.38;5007073;28;20060;-83
2022/04/29 07:45:52;;;;;;;25.70;15.77;;;;;;;15.02;61.12;99975.19;4994078;28;20026;-79
2022/04/29 07:48:22;;;;;;;19.25;15.00;;;;;;;14.92;60.06;99961.56;5007890;28;20037;-82
2022/04/29 07:50:50;;;;;;;22.75;14.30;;;;;;;14.90;61.03;99954.66;4988116;28;20034;-84
2022/04/29 07:53:15;;;;;;;24.02;15.68;;;;;;;15.01;59.90;99976.38;4991594;28;20064;-83
2022/04/29 07:55:41;;;;;;;45.28;37.38;;;;;;;15.02;61.98;99952.66;4988738;28;20658;-83
2022/04/29 07:58:09;;;;;;;27.50;17.48;;;;;;;15.23;60.52;99974.25;4980650;28;20066;-83
2022/04/29 08:00:38;;;;;;;18.52;12.90;;;;;;;15.09;60.18;99968.97;4992046;28;20061;-83
2022/04/29 08:03:08;;;;;;;16.73;12.32;;;;;;;14.88;58.62;99952.22;4972807;28;20026;-82
2022/04/29 08:05:36;;;;;;;26.30;17.58;;;;;;;15.04;61.10;99959.94;4974450;28;20056;-82
2022/04/29 08:08:10;;;;;;;19.63;15.25;;;;;;;15.16;59.43;99959.91;4991050;28;20109;-84
2022/04/29 08:10:38;;;;;;;23.23;15.60;;;;;;;15.14;60.33;99965.09;4974284;28;20031;-82
2022/04/29 08:13:04;;;;;;;22.60;15.65;;;;;;;15.17;60.93;99953.09;4981854;28;20046;-84
2022/04/29 08:15:33;;;;;;;19.08;14.20;;;;;;;15.30;59.13;99951.09;5001799;28;20036;-80
2022/04/29 08:18:00;;;;;;;17.13;13.00;;;;;;;15.53;58.65;99957.00;4976447;28;20034;-84
2022/04/29 08:20:27;;;;;;;22.35;15.00;;;;;;;15.53;59.20;99950.56;4992379;28;20044;-84
2022/04/29 08:22:53;;;;;;;18.90;13.52;;;;;;;15.64;58.90;99953.69;4982171;28;20026;-82
2022/04/29 08:25:20;;;;;;;19.90;14.60;;;;;;;15.84;59.85;99960.31;5002318;28;20061;-84
2022/04/29 08:27:47;;;;;;;21.85;14.57;;;;;;;15.96;59.37;99939.72;4991790;28;20029;-83
2022/04/29 08:30:14;;;;;;;21.25;14.40;;;;;;;15.90;59.14;99943.97;4990398;28;20034;-84
2022/04/29 08:32:41;;;;;;;18.85;14.82;;;;;;;15.73;58.13;99951.56;4992083;28;20033;-80
2022/04/29 08:35:09;;;;;;;24.10;16.20;;;;;;;15.97;58.84;99950.63;4989028;28;20022;-80
2022/04/29 08:37:42;;;;;;;25.55;14.60;;;;;;;16.12;57.71;99951.88;5003355;28;20050;-84
2022/04/29 08:40:14;;;;;;;21.40;15.02;;;;;;;15.69;58.87;99928.88;5008727;28;20392;-85
2022/04/29 08:42:41;;;;;;;25.92;14.90;;;;;;;15.91;58.54;99928.69;4999579;28;20065;-77
2022/04/29 08:45:16;;;;;;;20.35;13.50;;;;;;;16.12;58.45;99940.56;4991493;28;20103;-77
2022/04/29 08:47:44;;;;;;;23.42;15.30;;;;;;;16.01;58.35;99928.16;4973938;28;20049;-82
2022/04/29 08:50:16;;;;;;;18.20;13.60;;;;;;;16.31;56.88;99924.13;4976897;28;20019;-82
2022/04/29 08:52:44;;;;;;;20.70;13.57;;;;;;;16.35;57.57;99923.03;4990125;28;20031;-81
2022/04/29 09:00:44;;;;;;;24.25;14.68;;;;;;;16.73;56.34;99934.03;4993511;28;20083;-83
2022/04/29 09:03:21;;;;;;;15.80;12.82;;;;;;;16.79;55.51;99921.28;4959123;28;20046;-78
2022/04/29 09:05:48;;;;;;;23.63;15.18;;;;;;;16.82;58.02;99921.34;4993910;28;20109;-84
2022/04/29 09:08:16;;;;;;;16.65;11.68;;;;;;;16.78;55.03;99930.97;4999042;28;20017;-79
2022/04/29 09:10:56;;;;;;;18.33;13.88;;;;;;;16.47;55.80;99899.56;4976104;28;20096;-83
2022/04/29 09:13:26;;;;;;;15.80;11.90;;;;;;;16.41;54.23;99924.41;4994221;28;20022;-75
2022/04/29 09:16:04;;;;;;;15.18;12.32;;;;;;;16.56;55.26;99925.56;4988057;28;20420;-74
2022/04/29 09:18:51;;;;;;;16.30;11.77;;;;;;;16.80;56.11;99922.94;4992132;28;20037;-77
2022/04/29 09:21:19;;;;;;;19.10;13.20;;;;;;;16.95;52.87;99918.41;4992762;28;20519;-82
2022/04/29 09:23:54;;;;;;;17.48;12.68;;;;;;;16.86;53.54;99920.66;4995223;28;20022;-81
2022/04/29 09:26:35;;;;;;;16.77;11.77;;;;;;;16.94;53.74;99913.97;5015251;28;20101;-77
2022/04/29 09:29:15;;;;;;;19.50;12.98;;;;;;;16.74;54.19;99913.91;5003119;28;20106;-74
2022/04/29 09:31:54;;;;;;;14.38;11.63;;;;;;;16.87;53.35;99910.97;5001651;28;20093;-76
2022/04/29 09:34:22;;;;;;;13.35;10.80;;;;;;;16.91;53.18;99915.53;4978724;28;20100;-84
2022/04/29 09:36:48;;;;;;;13.52;10.32;;;;;;;16.94;52.19;99911.97;5012124;28;20088;-77
2022/04/29 09:39:32;;;;;;;17.55;10.77;;;;;;;16.93;51.49;99915.16;4992088;28;20026;-81
2022/04/29 09:42:05;;;;;;;18.63;10.52;;;;;;;17.12;51.67;99905.91;5013056;28;20548;-79
2022/04/29 09:44:33;;;;;;;14.60;10.80;;;;;;;17.21;51.12;99911.38;4995510;28;20144;-84
2022/04/29 09:47:21;;;;;;;24.77;9.48;;;;;;;17.37;50.54;99908.47;4995264;28;20045;-79
2022/04/29 09:49:56;;;;;;;15.55;11.00;;;;;;;17.46;50.24;99909.09;4986553;28;20023;-79
2022/04/29 09:52:23;;;;;;;16.17;11.05;;;;;;;17.48;51.54;99901.03;5013501;28;20084;-80
2022/04/29 09:54:49;;;;;;;15.00;10.73;;;;;;;17.64;50.19;99892.50;4995952;28;20030;-81
2022/04/29 09:57:23;;;;;;;15.77;10.93;;;;;;;17.87;49.83;99903.03;5014136;28;20026;-80
2022/04/29 09:59:51;;;;;;;13.85;10.35;;;;;;;17.62;49.78;99888.41;5013258;28;20033;-81
2022/04/29 10:02:19;;;;;;;12.43;10.13;;;;;;;17.64;48.87;99888.84;5004079;28;20026;-84
2022/04/29 10:04:46;;;;;;;16.17;9.98;;;;;;;17.70;49.48;99883.72;4985345;28;20045;-81
2022/04/29 10:07:22;;;;;;;23.92;10.90;;;;;;;17.69;49.21;99874.41;4997418;28;20033;-81
2022/04/29 10:09:50;;;;;;;22.25;11.27;;;;;;;17.60;50.52;99876.63;4992862;28;20452;-82
2022/04/29 10:12:18;;;;;;;19.35;11.43;;;;;;;17.38;49.75;99884.69;5007759;28;20026;-81
2022/04/29 10:14:45;;;;;;;13.52;10.48;;;;;;;17.51;50.64;99883.34;4984247;28;20030;-84
2022/04/29 10:22:50;;;;;;;18.60;11.15;;;;;;;17.93;48.77;99873.25;4998686;28;20484;-79
2022/04/29 10:25:18;;;;;;;12.90;9.50;;;;;;;17.45;48.55;99875.56;4997330;28;20026;-82
2022/04/29 10:27:44;;;;;;;15.52;10.30;;;;;;;17.63;49.56;99878.75;4993131;28;20500;-82
2022/04/29 10:30:10;;;;;;;12.45;9.15;;;;;;;17.61;48.80;99869.78;5003139;28;20026;-84
2022/04/29 10:33:00;;;;;;;15.13;10.57;;;;;;;17.77;48.55;99873.34;4980772;28;20034;-85
2022/04/29 10:35:47;;;;;;;16.10;10.45;;;;;;;18.22;50.02;99865.31;4987026;28;20121;-83
2022/04/29 10:38:13;;;;;;;15.57;10.48;;;;;;;18.49;47.25;99864.53;4978921;28;20097;-80
2022/04/29 10:40:39;;;;;;;15.40;10.80;;;;;;;18.27;47.77;99864.16;4993647;28;20026;-80
2022/04/29 10:43:09;;;;;;;16.52;10.90;;;;;;;18.36;48.65;99861.91;5000166;28;20463;-79
2022/04/29 10:45:36;;;;;;;16.40;10.68;;;;;;;18.27;48.78;99866.16;4996973;28;20038;-76
2022/04/29 10:48:30;;;;;;;19.05;10.93;;;;;;;18.42;48.81;99867.25;4993925;28;20033;-78
2022/04/29 10:50:56;;;;;;;15.18;9.88;;;;;;;18.58;49.02;99856.59;5000084;28;20043;-80
2022/04/29 10:53:23;;;;;;;16.35;9.98;;;;;;;18.83;47.35;99853.31;4976858;28;20092;-79
2022/04/29 10:55:49;;;;;;;16.98;10.02;;;;;;;18.48;47.59;99840.25;4996397;28;20037;-80
2022/04/29 10:58:22;;;;;;;12.50;9.48;;;;;;;18.47;46.03;99844.28;4984464;28;20034;-77
2022/04/29 11:01:16;;;;;;;21.52;10.77;;;;;;;18.58;46.35;99850.94;4997023;28;20026;-76
2022/04/29 11:03:45;;;;;;;13.38;9.05;;;;;;;18.62;46.46;99840.47;4982122;28;20330;-81
2022/04/29 11:06:14;;;;;;;10.85;8.73;;;;;;;18.57;46.64;99846.44;5001149;28;20101;-81
2022/04/29 11:08:44;;;;;;;12.18;9.93;;;;;;;18.89;47.94;99842.47;5013205;28;20029;-83
2022/04/29 11:11:10;;;;;;;12.68;9.27;;;;;;;19.34;48.04;99837.03;4996126;28;20555;-82
2022/04/29 11:13:47;;;;;;;13.30;9.98;;;;;;;19.47;46.29;99832.72;4992312;28;20058;-77
2022/04/29 11:16:19;;;;;;;14.80;10.93;;;;;;;19.17;46.35;99830.72;4976305;28;20121;-81
2022/04/29 11:18:45;;;;;;;17.85;10.43;;;;;;;19.33;46.58;99827.69;4993259;28;20022;-79
2022/04/29 11:26:46;;;;;;;16.70;10.10;;;;;;;19.36;45.55;99829.75;5002891;28;20144;-77
2022/04/29 11:29:12;;;;;;;15.85;10.85;;;;;;;19.66;44.87;99822.38;4981240;28;20022;-75
2022/04/29 11:31:38;;;;;;;11.55;9.02;;;;;;;19.44;45.50;99827.84;5010126;28;20053;-74
2022/04/29 11:34:08;;;;;;;10.55;8.52;;;;;;;19.42;44.78;99824.53;4991149;28;20464;-75
2022/04/29 11:36:34;;;;;;;11.00;9.73;;;;;;;18.99;46.25;99821.94;5004361;28;20068;-74
2022/04/29 11:39:03;;;;;;;14.32;10.23;;;;;;;19.68;47.03;99816.31;5002291;28;20073;-75
2022/04/29 11:41:29;;;;;;;14.38;8.90;;;;;;;20.21;45.66;99812.41;4993601;28;20037;-76
2022/04/29 11:43:55;;;;;;;11.43;9.32;;;;;;;20.36;44.82;99810.50;4975645;28;20031;-76
2022/04/29 11:46:21;;;;;;;10.48;8.82;;;;;;;20.43;43.50;99815.41;4995658;28;20033;-76
2022/04/29 11:48:52;;;;;;;12.10;10.00;;;;;;;20.52;44.42;99806.53;4996165;28;20099;-76
2022/04/29 11:51:17;;;;;;;11.60;9.60;;;;;;;20.34;44.03;99810.88;4990675;28;20026;-76
2022/04/29 11:53:53;;;;;;;12.48;9.23;;;;;;;20.57;44.17;99811.84;5010492;28;20029;-76
2022/04/29 11:56:19;;;;;;;12.60;8.93;;;;;;;19.83;44.99;99809.56;5001331;28;20060;-76